createdAt,value
2023-02-07T00:01:11.642Z,101950.63
2023-02-07T00:03:41.238Z,101950.06
2023-02-07T00:06:10.770Z,101949.03
2023-02-07T00:08:39.653Z,101945.31
2023-02-07T00:11:08.759Z,101951.28
2023-02-07T00:13:37.087Z,101954.84
2023-02-07T00:16:06.168Z,101954.56
2023-02-07T00:18:35.519Z,101948.00
2023-02-07T00:21:07.819Z,101948.94
2023-02-07T00:23:36.435Z,101950.41
2023-02-07T00:26:05.501Z,101951.63
2023-02-07T00:28:33.237Z,101949.84
2023-02-07T00:31:05.453Z,101950.72
2023-02-07T00:33:33.242Z,101933.72
2023-02-07T00:36:02.473Z,101937.63
2023-02-07T00:38:32.726Z,101926.00
2023-02-07T00:41:01.708Z,101924.47
2023-02-07T00:43:30.293Z,101926.31
2023-02-07T00:45:59.393Z,101912.31
2023-02-07T00:48:27.209Z,101916.44
2023-02-07T00:50:54.909Z,101919.47
2023-02-07T00:53:23.223Z,101916.78
2023-02-07T00:55:52.250Z,101929.31
2023-02-07T00:58:20.044Z,101927.53
2023-02-07T01:00:47.897Z,101935.88
2023-02-07T01:03:15.836Z,101935.31
2023-02-07T01:05:44.120Z,101946.94
2023-02-07T01:08:12.237Z,101939.78
2023-02-07T01:10:40.481Z,101953.78
2023-02-07T01:13:13.141Z,101952.00
2023-02-07T01:15:43.720Z,101940.66
2023-02-07T01:18:12.115Z,101942.03
2023-02-07T01:20:40.196Z,101938.75
2023-02-07T01:23:08.040Z,101942.78
2023-02-07T01:25:35.874Z,101945.47
2023-02-07T01:28:05.162Z,101950.84
2023-02-07T01:30:34.270Z,101933.53
2023-02-07T01:33:01.899Z,101942.78
2023-02-07T01:35:29.475Z,101950.53
2023-02-07T01:37:58.289Z,101960.38
2023-02-07T01:40:26.937Z,101958.56
2023-02-07T01:42:54.498Z,101953.09
2023-02-07T01:45:29.430Z,101949.94
2023-02-07T01:48:02.664Z,101950.38
2023-02-07T01:50:30.838Z,101962.47
2023-02-07T01:52:59.792Z,101950.56
2023-02-07T01:55:34.950Z,101955.31
2023-02-07T01:58:05.108Z,101948.59
2023-02-07T02:00:32.721Z,101965.44
2023-02-07T02:03:02.080Z,101965.44
2023-02-07T02:05:32.171Z,101969.91
2023-02-07T02:08:00.253Z,101972.44
2023-02-07T02:10:43.626Z,101972.59
2023-02-07T02:13:24.204Z,101974.53
2023-02-07T02:16:04.332Z,101969.16
2023-02-07T02:18:49.838Z,101964.72
2023-02-07T02:22:02.803Z,101969.31
2023-02-07T02:25:03.735Z,101971.09
2023-02-07T02:27:53.603Z,101967.22
2023-02-07T02:31:02.723Z,101968.09
2023-02-07T02:33:43.176Z,101955.91
2023-02-07T02:36:23.351Z,101949.66
2023-02-07T02:38:57.037Z,101935.66
2023-02-07T02:41:30.769Z,101940.09
2023-02-07T02:44:03.704Z,101960.66
2023-02-07T02:46:35.140Z,101963.59
2023-02-07T02:49:06.395Z,101957.63
2023-02-07T02:51:34.030Z,101955.69
2023-02-07T02:54:02.373Z,101962.41
2023-02-07T02:56:56.386Z,101961.50
2023-02-07T02:59:48.340Z,101970.09
2023-02-07T03:02:30.257Z,101975.81
2023-02-07T03:05:12.964Z,101966.84
2023-02-07T03:07:48.641Z,101978.44
2023-02-07T03:10:25.611Z,101982.59
2023-02-07T03:13:00.028Z,101984.09
2023-02-07T03:15:37.605Z,101985.41
2023-02-07T03:18:11.693Z,101994.31
2023-02-07T03:20:46.835Z,101999.25
2023-02-07T03:23:16.248Z,101992.06
2023-02-07T03:25:46.494Z,101987.03
2023-02-07T03:28:17.640Z,101990.91
2023-02-07T03:30:49.527Z,101995.22
2023-02-07T03:33:18.757Z,101988.19
2023-02-07T03:35:54.436Z,101982.25
2023-02-07T03:38:22.440Z,101991.16
2023-02-07T03:40:54.594Z,101981.66
2023-02-07T03:43:25.926Z,101981.06
2023-02-07T03:45:53.781Z,101985.03
2023-02-07T03:48:21.377Z,101982.38
2023-02-07T03:50:51.852Z,101976.97
2023-02-07T03:53:19.746Z,101976.97
2023-02-07T03:55:47.344Z,101983.38
2023-02-07T03:58:15.092Z,101990.97
2023-02-07T04:00:42.659Z,101995.38
2023-02-07T04:03:10.292Z,101994.94
2023-02-07T04:05:38.357Z,101998.78
2023-02-07T04:08:07.395Z,101993.13
2023-02-07T04:10:34.958Z,102002.06
2023-02-07T04:13:02.545Z,101997.00
2023-02-07T04:15:30.371Z,101993.41
2023-02-07T04:17:57.941Z,101986.56
2023-02-07T04:20:25.501Z,101991.59
2023-02-07T04:22:53.153Z,101976.84
2023-02-07T04:25:22.107Z,101975.81
2023-02-07T04:27:52.279Z,101979.38
2023-02-07T04:30:20.102Z,101980.56
2023-02-07T04:32:47.717Z,101968.97
2023-02-07T04:35:15.327Z,101973.84
2023-02-07T04:37:42.892Z,101980.81
2023-02-07T04:40:11.523Z,101985.31
2023-02-07T04:42:40.485Z,101981.41
2023-02-07T04:45:08.787Z,101981.09
2023-02-07T04:47:36.373Z,101974.34
2023-02-07T04:50:04.218Z,101978.97
2023-02-07T04:52:31.873Z,101980.78
2023-02-07T04:54:59.518Z,101984.03
2023-02-07T04:57:27.141Z,101976.00
2023-02-07T04:59:56.084Z,101972.25
2023-02-07T05:02:24.069Z,101973.69
2023-02-07T05:04:51.758Z,101985.28
2023-02-07T05:07:19.379Z,101984.88
2023-02-07T05:09:47.198Z,101990.50
2023-02-07T05:12:16.356Z,101982.47
2023-02-07T05:14:43.986Z,101988.66
2023-02-07T05:17:12.906Z,101999.06
2023-02-07T05:19:40.939Z,101995.50
2023-02-07T05:22:08.549Z,101993.38
2023-02-07T05:24:36.191Z,101994.88
2023-02-07T05:27:03.864Z,101995.78
2023-02-07T05:29:31.441Z,101996.66
2023-02-07T05:32:16.757Z,101998.09
2023-02-07T05:34:45.761Z,101989.50
2023-02-07T05:37:13.318Z,101991.88
2023-02-07T05:39:40.926Z,102003.59
2023-02-07T05:42:08.564Z,101987.78
2023-02-07T05:44:36.306Z,101988.91
2023-02-07T05:47:03.841Z,101996.50
2023-02-07T05:49:31.457Z,101985.84
2023-02-07T05:52:00.626Z,101987.53
2023-02-07T05:54:28.189Z,101988.97
2023-02-07T05:56:55.800Z,101998.25
2023-02-07T05:59:23.627Z,101999.16
2023-02-07T06:01:51.233Z,102001.50
2023-02-07T06:04:18.863Z,102002.78
2023-02-07T06:06:46.529Z,102006.69
2023-02-07T06:09:15.558Z,102001.31
2023-02-07T06:11:43.158Z,102010.72
2023-02-07T06:14:10.899Z,102012.09
2023-02-07T06:16:38.477Z,102019.00
2023-02-07T06:19:06.045Z,102024.06
2023-02-07T06:21:45.651Z,102011.41
2023-02-07T06:24:15.446Z,102012.84
2023-02-07T06:26:44.245Z,102004.13
2023-02-07T06:29:11.796Z,102003.97
2023-02-07T06:31:39.437Z,101995.09
2023-02-07T06:34:07.121Z,102002.03
2023-02-07T06:36:34.755Z,102007.22
2023-02-07T06:39:02.410Z,102005.72
2023-02-07T06:41:31.312Z,102008.72
2023-02-07T06:43:59.047Z,102006.31
2023-02-07T06:46:26.755Z,102002.81
2023-02-07T06:48:54.360Z,102004.97
2023-02-07T06:51:21.970Z,102004.31
2023-02-07T06:53:49.565Z,102009.63
2023-02-07T06:56:18.683Z,102014.09
2023-02-07T06:58:48.249Z,102023.88
2023-02-07T07:01:19.986Z,102036.50
2023-02-07T07:03:47.753Z,102038.28
2023-02-07T07:06:15.460Z,102045.16
2023-02-07T07:08:43.101Z,102045.72
2023-02-07T07:11:10.772Z,102048.81
2023-02-07T07:13:38.643Z,102047.19
2023-02-07T07:16:08.255Z,102056.56
2023-02-07T07:18:37.492Z,102056.72
2023-02-07T07:21:05.718Z,102059.38
2023-02-07T07:23:33.583Z,102056.56
2023-02-07T07:26:01.214Z,102055.66
2023-02-07T07:28:28.942Z,102046.47
2023-02-07T07:30:56.553Z,102048.97
2023-02-07T07:33:25.569Z,102043.31
2023-02-07T07:35:57.701Z,102052.69
2023-02-07T07:38:25.305Z,102055.63
2023-02-07T07:40:52.944Z,102057.22
2023-02-07T07:43:20.886Z,102049.25
2023-02-07T07:45:53.441Z,102050.66
2023-02-07T07:48:21.380Z,102054.34
2023-02-07T07:50:51.112Z,102055.63
2023-02-07T07:53:19.227Z,102056.19
2023-02-07T07:55:50.280Z,102061.91
2023-02-07T07:58:18.052Z,102054.22
2023-02-07T08:00:47.567Z,102061.44
2023-02-07T08:03:15.358Z,102061.78
2023-02-07T08:05:43.110Z,102057.03
2023-02-07T08:08:12.249Z,102057.34
2023-02-07T08:10:40.666Z,102067.53
2023-02-07T08:13:08.479Z,102060.56
2023-02-07T08:15:36.257Z,102067.56
2023-02-07T08:18:04.073Z,102073.28
2023-02-07T08:20:31.793Z,102076.84
2023-02-07T08:22:59.371Z,102078.53
2023-02-07T08:25:28.443Z,102090.19
2023-02-07T08:27:56.407Z,102104.69
2023-02-07T08:30:24.428Z,102101.28
2023-02-07T08:32:52.679Z,102099.72
2023-02-07T08:35:20.415Z,102096.16
2023-02-07T08:37:48.018Z,102097.00
2023-02-07T08:40:15.609Z,102103.44
2023-02-07T08:42:44.540Z,102106.63
2023-02-07T08:45:12.581Z,102104.41
2023-02-07T08:47:40.386Z,102108.63
2023-02-07T08:50:08.855Z,102104.63
2023-02-07T08:52:36.529Z,102108.81
2023-02-07T08:55:04.618Z,102114.66
2023-02-07T08:57:33.036Z,102104.69
2023-02-07T09:00:02.057Z,102106.91
2023-02-07T09:02:29.759Z,102103.19
2023-02-07T09:04:57.414Z,102107.53
2023-02-07T09:07:25.010Z,102107.66
2023-02-07T09:09:52.530Z,102107.50
2023-02-07T09:12:20.188Z,102107.66
2023-02-07T09:14:47.743Z,102103.34
2023-02-07T09:17:16.703Z,102103.44
2023-02-07T09:19:44.534Z,102106.16
2023-02-07T09:22:12.134Z,102105.22
2023-02-07T09:24:39.693Z,102104.16
2023-02-07T09:27:07.750Z,102105.47
2023-02-07T09:29:35.660Z,102102.97
2023-02-07T09:32:03.560Z,102121.88
2023-02-07T09:34:34.477Z,102121.94
2023-02-07T09:37:02.216Z,102119.97
2023-02-07T09:39:31.861Z,102121.50
2023-02-07T09:42:12.167Z,102113.09
2023-02-07T09:44:54.174Z,102119.41
2023-02-07T09:47:24.550Z,102121.88
2023-02-07T09:49:57.597Z,102130.13
2023-02-07T09:52:30.038Z,102124.47
2023-02-07T09:55:00.695Z,102123.47
2023-02-07T09:57:37.564Z,102126.00
2023-02-07T10:00:10.064Z,102137.28
2023-02-07T10:02:41.303Z,102135.38
2023-02-07T10:05:18.108Z,102127.47
2023-02-07T10:07:46.909Z,102124.25
2023-02-07T10:10:16.439Z,102128.81
2023-02-07T10:12:59.224Z,102124.31
2023-02-07T10:15:43.665Z,102118.56
2023-02-07T10:18:31.796Z,102118.91
2023-02-07T10:21:05.848Z,102127.88
2023-02-07T10:23:43.744Z,102117.69
2023-02-07T10:26:23.343Z,102120.75
2023-02-07T10:29:19.020Z,102122.03
2023-02-07T10:31:51.888Z,102125.56
2023-02-07T10:34:22.785Z,102132.94
2023-02-07T10:36:54.018Z,102128.56
2023-02-07T10:39:27.850Z,102119.03
2023-02-07T10:41:57.453Z,102115.78
2023-02-07T10:44:25.371Z,102120.00
2023-02-07T10:46:59.478Z,102128.88
2023-02-07T10:49:30.065Z,102125.97
2023-02-07T10:52:03.543Z,102114.09
2023-02-07T10:54:31.091Z,102119.66
2023-02-07T10:57:02.402Z,102110.84
2023-02-07T10:59:40.568Z,102126.41
2023-02-07T11:02:49.733Z,102118.38
2023-02-07T11:05:41.536Z,102115.84
2023-02-07T11:08:26.505Z,102116.88
2023-02-07T11:10:55.849Z,102121.59
2023-02-07T11:13:27.805Z,102118.94
2023-02-07T11:15:59.539Z,102107.13
2023-02-07T11:18:38.521Z,102108.38
2023-02-07T11:21:08.583Z,102102.19
2023-02-07T11:23:37.683Z,102104.03
2023-02-07T11:26:06.049Z,102098.25
2023-02-07T11:28:34.074Z,102097.72
2023-02-07T11:31:04.160Z,102090.00
2023-02-07T11:33:34.944Z,102092.53
2023-02-07T11:36:22.122Z,102087.28
2023-02-07T11:38:55.343Z,102090.25
2023-02-07T11:41:25.573Z,102079.00
2023-02-07T11:43:56.240Z,102080.81
2023-02-07T11:46:31.140Z,102085.09
2023-02-07T11:48:59.877Z,102077.94
2023-02-07T11:51:28.712Z,102076.94
2023-02-07T11:54:01.972Z,102077.34
2023-02-07T11:56:34.130Z,102080.41
2023-02-07T11:59:06.511Z,102087.50
2023-02-07T12:01:36.622Z,102088.16
2023-02-07T12:04:11.154Z,102086.56
2023-02-07T12:06:43.183Z,102088.13
2023-02-07T12:09:28.656Z,102071.50
2023-02-07T12:11:58.615Z,102085.72
2023-02-07T12:14:33.624Z,102074.16
2023-02-07T12:17:07.937Z,102074.13
2023-02-07T12:19:38.569Z,102071.81
2023-02-07T12:22:11.785Z,102068.56
2023-02-07T12:24:46.316Z,102055.41
2023-02-07T12:27:16.779Z,102066.50
2023-02-07T12:29:55.525Z,102054.22
2023-02-07T12:32:32.492Z,102057.97
2023-02-07T12:35:07.094Z,102040.78
2023-02-07T12:37:42.876Z,102050.44
2023-02-07T12:40:19.282Z,102044.19
2023-02-07T12:42:53.142Z,102048.50
2023-02-07T12:45:35.377Z,102038.81
2023-02-07T12:48:11.109Z,102029.81
2023-02-07T12:50:54.313Z,102034.47
2023-02-07T12:53:37.839Z,102026.47
2023-02-07T12:56:18.301Z,102020.09
2023-02-07T12:58:54.757Z,102020.78
2023-02-07T13:01:30.047Z,102022.44
2023-02-07T13:04:36.721Z,102016.19
2023-02-07T13:07:22.756Z,102020.25
2023-02-07T13:09:56.177Z,102006.66
2023-02-07T13:12:29.348Z,102006.66
2023-02-07T13:15:08.154Z,102011.22
2023-02-07T13:17:46.614Z,102012.38
2023-02-07T13:20:26.128Z,102009.34
2023-02-07T13:23:00.334Z,102005.19
2023-02-07T13:25:31.361Z,102010.28
2023-02-07T13:28:04.627Z,102026.00
2023-02-07T13:30:32.945Z,102034.50
2023-02-07T13:33:13.884Z,102029.88
2023-02-07T13:35:43.289Z,102030.03
2023-02-07T13:38:21.250Z,102027.78
2023-02-07T13:40:59.072Z,102023.59
2023-02-07T13:43:39.244Z,102027.53
2023-02-07T13:46:19.050Z,102020.44
2023-02-07T13:48:51.712Z,102014.50
2023-02-07T13:51:26.352Z,102018.41
2023-02-07T13:54:02.837Z,102017.84
2023-02-07T13:56:52.720Z,102024.03
2023-02-07T13:59:42.793Z,102016.53
2023-02-07T14:02:18.992Z,102012.84
2023-02-07T14:04:53.647Z,102009.88
2023-02-07T14:07:26.102Z,102011.44
2023-02-07T14:09:56.762Z,102002.97
2023-02-07T14:12:27.568Z,102015.34
2023-02-07T14:15:03.122Z,102006.03
2023-02-07T14:17:59.773Z,102006.31
2023-02-07T14:20:48.158Z,102010.13
2023-02-07T14:23:18.773Z,102005.88
2023-02-07T14:25:47.577Z,102010.00
2023-02-07T14:28:31.723Z,102011.47
2023-02-07T14:31:14.437Z,102004.94
2023-02-07T14:33:42.206Z,102002.09
2023-02-07T14:36:25.120Z,102004.28
2023-02-07T14:39:06.798Z,102002.84
2023-02-07T14:41:38.051Z,102009.44
2023-02-07T14:44:10.340Z,102010.53
2023-02-07T14:46:42.645Z,102002.91
2023-02-07T14:49:16.818Z,102013.94
2023-02-07T14:51:47.973Z,102001.56
2023-02-07T14:54:20.155Z,102003.81
2023-02-07T14:56:53.738Z,102002.22
2023-02-07T14:59:28.609Z,102007.94
2023-02-07T15:01:57.507Z,102007.28
2023-02-07T15:04:25.091Z,102005.59
2023-02-07T15:06:52.695Z,102005.75
2023-02-07T15:09:25.337Z,101999.56
2023-02-07T15:12:03.558Z,102002.19
2023-02-07T15:14:36.359Z,102000.09
2023-02-07T15:17:06.236Z,102004.28
2023-02-07T15:19:36.616Z,102016.09
2023-02-07T15:22:17.200Z,102008.19
2023-02-07T15:24:56.680Z,102005.91
2023-02-07T15:27:26.093Z,101998.50
2023-02-07T15:29:58.981Z,102008.19
2023-02-07T15:32:30.801Z,102015.28
2023-02-07T15:34:59.047Z,102014.19
2023-02-07T15:37:27.655Z,102022.03
2023-02-07T15:39:56.543Z,102014.63
2023-02-07T15:42:24.747Z,102015.16
2023-02-07T15:44:54.891Z,102025.69
2023-02-07T15:47:37.323Z,102020.25
2023-02-07T15:50:07.804Z,102021.25
2023-02-07T15:52:38.804Z,102031.72
2023-02-07T15:55:18.373Z,102029.22
2023-02-07T15:57:46.249Z,102027.31
2023-02-07T16:00:18.831Z,102033.00
2023-02-07T16:02:57.542Z,102031.44
2023-02-07T16:05:28.352Z,102033.50
2023-02-07T16:07:56.814Z,102036.28
2023-02-07T16:10:36.905Z,102026.59
2023-02-07T16:13:11.847Z,102038.75
2023-02-07T16:15:52.340Z,102044.44
2023-02-07T16:21:16.639Z,102046.53
2023-02-07T16:23:44.846Z,102045.75
2023-02-07T16:26:13.099Z,102049.22
2023-02-07T16:28:40.622Z,102050.84
2023-02-07T16:31:08.322Z,102049.63
2023-02-07T16:33:38.986Z,102047.44
2023-02-07T16:36:12.173Z,102057.97
2023-02-07T16:38:41.052Z,102055.06
2023-02-07T16:41:21.995Z,102057.59
2023-02-07T16:43:49.916Z,102061.81
2023-02-07T16:46:17.526Z,102053.16
2023-02-07T16:48:45.149Z,102059.28
2023-02-07T16:51:12.813Z,102062.09
2023-02-07T16:53:41.715Z,102058.25
2023-02-07T16:56:13.069Z,102060.16
2023-02-07T16:58:41.178Z,102069.44
2023-02-07T17:01:08.748Z,102060.63
2023-02-07T17:03:36.317Z,102066.06
2023-02-07T17:06:04.724Z,102066.44
2023-02-07T17:08:32.326Z,102062.31
2023-02-07T17:11:05.440Z,102063.69
2023-02-07T17:13:33.123Z,102063.13
2023-02-07T17:16:00.727Z,102069.47
2023-02-07T17:18:28.322Z,102065.72
2023-02-07T17:20:56.880Z,102069.69
2023-02-07T17:23:25.156Z,102073.84
2023-02-07T17:25:52.765Z,102062.94
2023-02-07T17:28:21.687Z,102070.97
2023-02-07T17:30:50.498Z,102063.16
2023-02-07T17:33:18.202Z,102064.44
2023-02-07T17:35:45.837Z,102066.59
2023-02-07T17:38:13.367Z,102067.25
2023-02-07T17:40:42.111Z,102074.06
2023-02-07T17:43:09.844Z,102063.22
2023-02-07T17:45:38.982Z,102063.88
2023-02-07T17:48:06.878Z,102065.72
2023-02-07T17:50:36.451Z,102068.72
2023-02-07T17:53:05.012Z,102063.34
2023-02-07T17:55:33.609Z,102066.19
2023-02-07T17:58:03.181Z,102052.66
2023-02-07T18:00:33.873Z,102059.22
2023-02-07T18:03:02.769Z,102062.22
2023-02-07T18:05:30.927Z,102065.06
2023-02-07T18:07:58.632Z,102063.59
2023-02-07T18:10:29.057Z,102071.66
2023-02-07T18:12:56.717Z,102074.50
2023-02-07T18:15:25.326Z,102080.78
2023-02-07T18:17:53.513Z,102086.03
2023-02-07T18:20:25.143Z,102077.53
2023-02-07T18:22:54.398Z,102084.09
2023-02-07T18:25:22.163Z,102092.59
2023-02-07T18:27:51.352Z,102095.16
2023-02-07T18:30:20.223Z,102101.69
2023-02-07T18:32:47.777Z,102096.03
2023-02-07T18:35:16.041Z,102100.22
2023-02-07T18:37:44.946Z,102105.59
2023-02-07T18:40:15.545Z,102111.25
2023-02-07T18:42:43.269Z,102111.09
2023-02-07T18:45:13.439Z,102102.91
2023-02-07T18:47:41.811Z,102100.53
2023-02-07T18:50:10.652Z,102110.34
2023-02-07T18:52:38.735Z,102102.88
2023-02-07T18:55:08.612Z,102103.94
2023-02-07T18:57:36.213Z,102102.72
2023-02-07T19:00:04.610Z,102103.75
2023-02-07T19:02:32.379Z,102090.50
2023-02-07T19:05:00.398Z,102085.84
2023-02-07T19:07:28.366Z,102097.50
2023-02-07T19:12:24.970Z,102097.31
2023-02-07T19:14:52.726Z,102097.75
2023-02-07T19:17:20.562Z,102098.34
2023-02-07T19:19:48.238Z,102100.13
2023-02-07T19:22:21.581Z,102095.66
2023-02-07T19:24:54.340Z,102084.63
2023-02-07T19:27:22.174Z,102097.72
2023-02-07T19:29:51.177Z,102092.31
2023-02-07T19:32:19.364Z,102090.53
2023-02-07T19:34:49.092Z,102092.78
2023-02-07T19:37:16.718Z,102096.78
2023-02-07T19:39:46.080Z,102096.63
2023-02-07T19:42:13.784Z,102107.78
2023-02-07T19:44:41.297Z,102106.44
2023-02-07T19:47:10.573Z,102111.50
2023-02-07T19:49:38.108Z,102106.53
2023-02-07T19:52:05.865Z,102110.97
2023-02-07T19:54:33.507Z,102103.66
2023-02-07T19:57:01.087Z,102108.56
2023-02-07T19:59:28.780Z,102105.38
2023-02-07T20:01:56.450Z,102109.44
2023-02-07T20:04:25.428Z,102118.34
2023-02-07T20:06:52.966Z,102120.75
2023-02-07T20:09:20.549Z,102122.78
2023-02-07T20:11:48.195Z,102119.22
2023-02-07T20:14:15.724Z,102119.38
2023-02-07T20:16:43.284Z,102120.81
2023-02-07T20:19:11.035Z,102118.91
2023-02-07T20:21:40.512Z,102116.84
2023-02-07T20:24:08.906Z,102120.69
2023-02-07T20:26:39.448Z,102120.69
2023-02-07T20:29:09.756Z,102125.44
2023-02-07T20:31:38.702Z,102116.22
2023-02-07T20:34:06.526Z,102119.63
2023-02-07T20:36:40.645Z,102124.38
2023-02-07T20:39:12.384Z,102126.00
2023-02-07T20:41:41.670Z,102121.84
2023-02-07T20:44:19.500Z,102120.78
2023-02-07T20:46:49.150Z,102126.91
2023-02-07T20:49:19.852Z,102125.84
2023-02-07T20:51:49.375Z,102119.72
2023-02-07T20:54:20.356Z,102128.78
2023-02-07T20:56:48.289Z,102124.16
2023-02-07T20:59:17.870Z,102117.31
2023-02-07T21:01:45.515Z,102117.47
2023-02-07T21:04:13.304Z,102119.44
2023-02-07T21:06:42.506Z,102119.44
2023-02-07T21:09:10.461Z,102122.44
2023-02-07T21:11:42.062Z,102112.13
2023-02-07T21:14:13.842Z,102107.19
2023-02-07T21:16:41.526Z,102113.06
2023-02-07T21:19:09.149Z,102102.66
2023-02-07T21:21:36.737Z,102107.09
2023-02-07T21:24:04.873Z,102104.97
2023-02-07T21:26:32.428Z,102104.63
2023-02-07T21:29:03.545Z,102102.44
2023-02-07T21:31:34.777Z,102107.34
2023-02-07T21:34:03.608Z,102107.38
2023-02-07T21:36:32.660Z,102104.44
2023-02-07T21:39:04.241Z,102111.41
2023-02-07T21:41:32.644Z,102107.50
2023-02-07T21:44:01.975Z,102098.69
2023-02-07T21:46:32.716Z,102093.88
2023-02-07T21:49:02.406Z,102092.09
2023-02-07T21:51:31.965Z,102104.00
2023-02-07T21:54:00.109Z,102095.38
2023-02-07T21:56:29.475Z,102102.22
2023-02-07T21:58:59.106Z,102094.78
2023-02-07T22:01:29.989Z,102094.22
2023-02-07T22:03:59.962Z,102099.53
2023-02-07T22:06:28.731Z,102103.38
2023-02-07T22:08:59.053Z,102097.97
2023-02-07T22:11:29.609Z,102093.81
2023-02-07T22:13:57.637Z,102101.25
2023-02-07T22:16:28.184Z,102106.31
2023-02-07T22:18:58.801Z,102103.78
2023-02-07T22:21:28.190Z,102097.69
2023-02-07T22:23:57.306Z,102102.72
2023-02-07T22:26:26.177Z,102100.94
2023-02-07T22:28:54.096Z,102101.34
2023-02-07T22:31:23.970Z,102108.28
2023-02-07T22:33:52.825Z,102102.00
2023-02-07T22:36:23.766Z,102109.44
2023-02-07T22:38:51.664Z,102101.84
2023-02-07T22:41:20.009Z,102095.41
2023-02-07T22:43:47.851Z,102103.75
2023-02-07T22:46:17.566Z,102091.81
2023-02-07T22:48:45.368Z,102091.16
2023-02-07T22:51:14.724Z,102091.03
2023-02-07T22:53:43.647Z,102088.25
2023-02-07T22:56:11.889Z,102092.66
2023-02-07T22:58:41.182Z,102090.38
2023-02-07T23:01:18.699Z,102093.84
2023-02-07T23:03:46.246Z,102095.09
2023-02-07T23:06:14.009Z,102097.84
2023-02-07T23:08:43.444Z,102100.78
2023-02-07T23:11:12.762Z,102100.13
2023-02-07T23:13:41.072Z,102096.03
2023-02-07T23:16:12.078Z,102098.47
2023-02-07T23:18:40.034Z,102096.53
2023-02-07T23:21:10.182Z,102100.31
2023-02-07T23:23:38.191Z,102086.47
2023-02-07T23:26:09.226Z,102095.50
2023-02-07T23:28:37.835Z,102099.16
2023-02-07T23:31:06.209Z,102091.25
2023-02-07T23:33:34.459Z,102090.19
2023-02-07T23:36:02.712Z,102090.59
2023-02-07T23:38:30.306Z,102090.25
2023-02-07T23:40:58.128Z,102094.97
2023-02-07T23:43:27.167Z,102090.97
2023-02-07T23:45:54.990Z,102089.56
2023-02-07T23:48:22.633Z,102086.50
2023-02-07T23:50:52.056Z,102086.34
2023-02-07T23:53:19.888Z,102090.00
2023-02-07T23:55:49.088Z,102079.16
2023-02-07T23:58:16.821Z,102077.69
